Time;durP1;ratioP1;P1;durP2;ratioP2;P2;SDS_P1;SDS_P2;PMS_P1;PMS_P2;Temp;Humidity;BMP_temperature;BMP_pressure;BME280_temperature;BME280_humidity;BME280_pressure;Samples;Min_cycle;Max_cycle;Signal;HPM_P1;HPM_P2
2022/06/30 00:00:31;;;;;;;7.95;2.00;;;;;;;;;;5070674;28;20104;-75
2022/06/30 00:02:56;;;;;;;6.63;1.63;;;;;;;;;;5070801;28;20028;-75
2022/06/30 00:05:22;;;;;;;9.88;1.70;;;;;;;;;;5070656;28;20093;-75
2022/06/30 00:07:47;;;;;;;5.13;1.77;;;;;;;;;;5070502;28;20430;-75
2022/06/30 00:10:13;;;;;;;5.80;2.00;;;;;;;;;;5070784;28;20027;-77
2022/06/30 00:12:39;;;;;;;5.10;1.95;;;;;;;;;;5070743;28;20020;-76
2022/06/30 00:15:05;;;;;;;3.90;1.60;;;;;;;;;;5070653;28;20021;-77
2022/06/30 00:17:31;;;;;;;7.85;1.77;;;;;;;;;;5070436;28;20024;-76
2022/06/30 00:19:56;;;;;;;3.58;1.67;;;;;;;;;;5070419;28;20109;-75
2022/06/30 00:22:22;;;;;;;6.80;1.52;;;;;;;;;;5070091;28;20629;-76
2022/06/30 00:24:47;;;;;;;3.65;1.80;;;;;;;;;;5070316;28;20036;-74
2022/06/30 00:27:13;;;;;;;6.13;1.77;;;;;;;;;;5070286;28;20029;-75
2022/06/30 00:29:38;;;;;;;2.92;1.50;;;;;;;;;;5070172;28;20024;-76
2022/06/30 00:32:04;;;;;;;6.45;1.80;;;;;;;;;;5070704;28;20048;-76
2022/06/30 00:34:30;;;;;;;3.85;1.60;;;;;;;;;;5070212;28;20465;-76
2022/06/30 00:36:55;;;;;;;6.50;1.65;;;;;;;;;;5069807;28;20029;-73
2022/06/30 00:39:21;;;;;;;6.07;1.65;;;;;;;;;;5070146;28;20017;-75
2022/06/30 00:41:47;;;;;;;3.42;1.63;;;;;;;;;;5070252;28;20021;-74
2022/06/30 00:44:13;;;;;;;5.68;1.50;;;;;;;;;;5070283;28;20031;-76
2022/06/30 00:46:39;;;;;;;4.90;1.65;;;;;;;;;;5051989;28;20016;-75
2022/06/30 00:49:06;;;;;;;6.88;1.42;;;;;;;;;;5069890;28;20048;-74
2022/06/30 00:51:32;;;;;;;5.97;1.40;;;;;;;;;;5070412;28;20063;-74
2022/06/30 00:54:00;;;;;;;3.63;1.48;;;;;;;;;;5070352;28;20055;-77
2022/06/30 00:56:27;;;;;;;6.10;1.48;;;;;;;;;;5069757;28;20042;-74
2022/06/30 00:58:55;;;;;;;6.03;1.45;;;;;;;;;;5069883;28;20047;-71
2022/06/30 01:01:25;;;;;;;5.80;1.50;;;;;;;;;;5069714;28;20046;-75
2022/06/30 01:03:51;;;;;;;4.37;1.20;;;;;;;;;;5069969;28;20021;-74
2022/06/30 01:06:17;;;;;;;4.50;1.45;;;;;;;;;;5069474;28;20032;-74
2022/06/30 01:08:43;;;;;;;3.83;1.65;;;;;;;;;;5069865;28;20032;-71
2022/06/30 01:13:53;;;;;;;4.80;1.45;;;;;;;;;;5070060;28;20035;-72
2022/06/30 01:16:21;;;;;;;4.63;1.70;;;;;;;;;;5069447;28;20020;-71
2022/06/30 01:18:47;;;;;;;5.78;1.58;;;;;;;;;;5069479;28;20074;-73
2022/06/30 01:21:12;;;;;;;6.53;1.70;;;;;;;;;;5068953;28;20017;-73
2022/06/30 01:23:38;;;;;;;4.53;1.85;;;;;;;;;;5069741;28;20038;-73
2022/06/30 01:26:03;;;;;;;3.88;1.38;;;;;;;;;;5069603;28;20146;-71
2022/06/30 01:28:29;;;;;;;7.18;1.45;;;;;;;;;;5069425;28;20017;-73
2022/06/30 01:30:55;;;;;;;7.80;1.92;;;;;;;;;;5069546;28;20588;-73
2022/06/30 01:33:20;;;;;;;5.50;1.70;;;;;;;;;;5069607;28;20031;-74
2022/06/30 01:35:45;;;;;;;7.22;1.67;;;;;;;;;;5068785;28;20024;-72
2022/06/30 01:38:11;;;;;;;5.80;1.50;;;;;;;;;;5069149;28;20024;-75
2022/06/30 01:40:36;;;;;;;5.15;1.77;;;;;;;;;;5069373;28;20031;-74
2022/06/30 01:43:05;;;;;;;4.60;1.27;;;;;;;;;;5069324;28;20047;-75
2022/06/30 01:45:30;;;;;;;5.88;1.92;;;;;;;;;;5069376;28;20107;-74
2022/06/30 01:47:56;;;;;;;5.65;1.80;;;;;;;;;;5069467;28;20510;-73
2022/06/30 01:50:31;;;;;;;6.20;1.80;;;;;;;;;;5069169;28;20037;-73
2022/06/30 01:52:57;;;;;;;8.00;1.75;;;;;;;;;;5069192;28;20115;-74
2022/06/30 01:55:23;;;;;;;8.85;2.00;;;;;;;;;;5069169;28;20031;-71
2022/06/30 01:57:49;;;;;;;5.30;1.70;;;;;;;;;;5068837;28;20419;-71
2022/06/30 02:00:18;;;;;;;7.78;1.70;;;;;;;;;;5072682;28;20025;-74
2022/06/30 02:02:44;;;;;;;8.32;1.88;;;;;;;;;;5073189;28;20056;-75
2022/06/30 02:05:10;;;;;;;8.00;1.80;;;;;;;;;;5073081;28;20028;-73
2022/06/30 02:07:36;;;;;;;6.20;1.65;;;;;;;;;;5072710;28;20027;-72
2022/06/30 02:10:15;;;;;;;7.57;1.70;;;;;;;;;;5073378;28;20024;-74
2022/06/30 02:12:47;;;;;;;5.68;1.73;;;;;;;;;;5072942;28;20107;-74
2022/06/30 02:15:28;;;;;;;4.65;1.55;;;;;;;;;;5072805;28;20024;-74
2022/06/30 02:17:54;;;;;;;8.70;1.63;;;;;;;;;;5072685;28;20108;-74
2022/06/30 02:20:23;;;;;;;7.90;1.77;;;;;;;;;;5072721;28;20481;-74
2022/06/30 02:22:51;;;;;;;5.82;1.60;;;;;;;;;;5072464;28;20108;-74
2022/06/30 02:25:16;;;;;;;7.68;2.00;;;;;;;;;;5072788;28;20028;-75
2022/06/30 02:27:42;;;;;;;3.75;1.40;;;;;;;;;;5072573;28;20511;-75
2022/06/30 02:30:08;;;;;;;4.03;1.65;;;;;;;;;;5072851;28;20907;-76
2022/06/30 02:32:33;;;;;;;6.97;2.05;;;;;;;;;;5072669;28;20499;-75
2022/06/30 02:34:59;;;;;;;7.53;1.63;;;;;;;;;;5072726;28;20027;-73
2022/06/30 02:37:24;;;;;;;5.97;1.70;;;;;;;;;;5071819;28;20032;-73
2022/06/30 02:39:50;;;;;;;7.55;1.92;;;;;;;;;;5072392;28;20052;-72
2022/06/30 02:42:15;;;;;;;6.35;1.60;;;;;;;;;;5072241;28;20037;-75
2022/06/30 02:44:41;;;;;;;5.03;1.38;;;;;;;;;;5072495;28;20035;-75
2022/06/30 02:47:06;;;;;;;7.65;1.77;;;;;;;;;;5072060;28;20029;-75
2022/06/30 02:49:32;;;;;;;7.60;1.67;;;;;;;;;;5072127;28;20128;-74
2022/06/30 02:51:57;;;;;;;6.85;1.75;;;;;;;;;;5071897;28;20028;-75
2022/06/30 02:54:23;;;;;;;8.23;1.70;;;;;;;;;;5072118;28;20048;-75
2022/06/30 02:56:49;;;;;;;6.47;1.60;;;;;;;;;;5071841;28;20028;-74
2022/06/30 02:59:15;;;;;;;5.43;1.50;;;;;;;;;;5071760;28;20422;-76
2022/06/30 03:01:40;;;;;;;9.88;1.85;;;;;;;;;;5071872;28;20025;-75
2022/06/30 03:04:06;;;;;;;8.07;1.67;;;;;;;;;;5072178;28;20487;-74
2022/06/30 03:06:32;;;;;;;6.05;1.88;;;;;;;;;;5071717;28;20047;-76
2022/06/30 03:08:59;;;;;;;7.75;1.70;;;;;;;;;;5071939;28;20021;-74
2022/06/30 03:11:25;;;;;;;8.63;1.80;;;;;;;;;;5070684;28;20029;-75
2022/06/30 03:13:51;;;;;;;6.68;1.60;;;;;;;;;;5071754;28;20031;-75
2022/06/30 03:16:19;;;;;;;7.65;2.13;;;;;;;;;;5071696;28;20025;-74
2022/06/30 03:18:45;;;;;;;7.47;1.60;;;;;;;;;;5071669;28;20083;-74
2022/06/30 03:21:11;;;;;;;8.90;1.55;;;;;;;;;;5071359;28;20362;-73
2022/06/30 03:23:37;;;;;;;6.05;1.50;;;;;;;;;;5072101;28;20025;-73
2022/06/30 03:26:03;;;;;;;7.25;1.67;;;;;;;;;;5071806;28;20384;-72
2022/06/30 03:28:28;;;;;;;8.15;1.65;;;;;;;;;;5071322;28;20024;-73
2022/06/30 03:30:54;;;;;;;8.32;1.52;;;;;;;;;;5071779;28;20090;-75
2022/06/30 03:33:20;;;;;;;6.50;1.58;;;;;;;;;;5071321;28;20032;-74
2022/06/30 03:35:46;;;;;;;3.70;1.40;;;;;;;;;;5071036;28;20024;-75
2022/06/30 03:38:12;;;;;;;7.15;1.63;;;;;;;;;;5071034;28;20095;-75
2022/06/30 03:40:38;;;;;;;5.93;1.60;;;;;;;;;;5071682;28;20615;-74
2022/06/30 03:43:04;;;;;;;6.32;1.63;;;;;;;;;;5071111;28;20081;-76
2022/06/30 03:45:30;;;;;;;5.53;1.50;;;;;;;;;;5071288;28;20036;-74
2022/06/30 03:47:56;;;;;;;6.85;1.42;;;;;;;;;;5071036;28;20029;-76
2022/06/30 03:50:21;;;;;;;4.55;1.55;;;;;;;;;;5071058;28;20115;-76
2022/06/30 03:52:47;;;;;;;6.80;1.77;;;;;;;;;;5070538;28;20140;-73
2022/06/30 03:55:13;;;;;;;7.40;1.90;;;;;;;;;;5071065;28;20028;-73
2022/06/30 03:57:38;;;;;;;7.85;1.80;;;;;;;;;;5070769;28;20055;-74
2022/06/30 04:00:05;;;;;;;7.65;1.58;;;;;;;;;;5070952;28;20039;-75
2022/06/30 04:02:31;;;;;;;10.10;1.80;;;;;;;;;;5070707;28;20476;-75
2022/06/30 04:04:57;;;;;;;4.90;1.42;;;;;;;;;;5071122;28;20112;-75
2022/06/30 04:07:22;;;;;;;6.00;1.42;;;;;;;;;;5070244;28;20162;-74
2022/06/30 04:09:48;;;;;;;6.15;1.83;;;;;;;;;;5052558;28;20032;-76
2022/06/30 04:12:13;;;;;;;8.30;1.92;;;;;;;;;;5070290;28;20039;-75
2022/06/30 04:14:39;;;;;;;6.20;1.50;;;;;;;;;;5070747;28;20024;-75
2022/06/30 04:17:04;;;;;;;6.28;1.55;;;;;;;;;;5070502;28;21043;-76
2022/06/30 04:19:30;;;;;;;6.15;1.60;;;;;;;;;;5070636;28;20024;-75
2022/06/30 04:21:56;;;;;;;5.00;1.58;;;;;;;;;;5069838;28;20111;-76
2022/06/30 04:24:21;;;;;;;7.18;1.52;;;;;;;;;;5070361;28;20021;-75
2022/06/30 04:26:47;;;;;;;6.82;1.80;;;;;;;;;;5070308;28;20108;-74
2022/06/30 04:29:13;;;;;;;5.82;1.70;;;;;;;;;;5070024;28;20051;-74
2022/06/30 04:34:22;;;;;;;11.70;1.90;;;;;;;;;;5070127;28;20035;-77
2022/06/30 04:36:47;;;;;;;6.00;1.60;;;;;;;;;;5069796;28;20020;-74
2022/06/30 04:39:13;;;;;;;5.68;1.67;;;;;;;;;;5070090;28;20028;-74
2022/06/30 04:41:38;;;;;;;8.68;1.80;;;;;;;;;;5070345;28;20631;-71
2022/06/30 04:44:05;;;;;;;3.28;1.13;;;;;;;;;;5070078;28;20404;-74
2022/06/30 04:46:31;;;;;;;4.38;1.48;;;;;;;;;;5070237;28;20047;-74
2022/06/30 04:48:56;;;;;;;8.52;1.45;;;;;;;;;;5069632;28;20079;-74
2022/06/30 04:51:22;;;;;;;9.85;1.50;;;;;;;;;;5069819;28;20059;-73
2022/06/30 04:53:48;;;;;;;7.57;1.60;;;;;;;;;;5069685;28;20029;-72
2022/06/30 04:56:15;;;;;;;5.68;1.40;;;;;;;;;;5070002;28;20034;-72
2022/06/30 04:58:40;;;;;;;6.80;1.30;;;;;;;;;;5069967;28;20046;-74
2022/06/30 05:01:06;;;;;;;5.07;1.30;;;;;;;;;;5069891;28;20040;-75
2022/06/30 05:03:33;;;;;;;5.03;1.33;;;;;;;;;;5069892;28;20108;-74
2022/06/30 05:05:59;;;;;;;7.22;1.45;;;;;;;;;;5069776;28;20035;-71
2022/06/30 05:08:25;;;;;;;7.22;1.50;;;;;;;;;;5069478;28;20107;-76
2022/06/30 05:10:51;;;;;;;6.93;1.25;;;;;;;;;;5069787;28;20074;-76
2022/06/30 05:13:17;;;;;;;5.18;1.50;;;;;;;;;;5069496;28;20028;-74
2022/06/30 05:15:45;;;;;;;3.88;1.10;;;;;;;;;;5069994;28;20040;-75
2022/06/30 05:18:10;;;;;;;5.32;1.52;;;;;;;;;;5069454;28;20024;-75
2022/06/30 05:20:36;;;;;;;6.20;1.35;;;;;;;;;;5069854;28;20047;-75
2022/06/30 05:23:02;;;;;;;6.13;1.20;;;;;;;;;;5069128;28;20033;-72
2022/06/30 05:28:12;;;;;;;3.35;1.40;;;;;;;;;;5069517;28;20543;-77
2022/06/30 05:30:37;;;;;;;5.45;1.20;;;;;;;;;;5069584;28;20028;-74
2022/06/30 05:33:03;;;;;;;5.63;1.67;;;;;;;;;;5069635;28;20090;-75
2022/06/30 05:35:28;;;;;;;5.22;1.30;;;;;;;;;;5073763;28;20471;-74
2022/06/30 05:37:54;;;;;;;6.28;2.10;;;;;;;;;;5073385;28;20020;-76
2022/06/30 05:40:19;;;;;;;7.57;1.42;;;;;;;;;;5073630;28;20029;-74
2022/06/30 05:42:45;;;;;;;4.20;1.30;;;;;;;;;;5055492;28;20066;-74
2022/06/30 05:45:10;;;;;;;6.85;1.20;;;;;;;;;;5073587;28;20086;-75
2022/06/30 05:47:45;;;;;;;5.30;1.20;;;;;;;;;;5073351;28;20029;-74
2022/06/30 05:50:12;;;;;;;5.13;1.30;;;;;;;;;;5080350;28;20044;-74
2022/06/30 05:52:37;;;;;;;3.95;1.30;;;;;;;;;;5093317;28;20059;-74
2022/06/30 05:55:03;;;;;;;5.20;1.30;;;;;;;;;;5093666;28;20052;-75
2022/06/30 05:57:28;;;;;;;3.28;1.17;;;;;;;;;;5093780;28;20024;-74
2022/06/30 05:59:53;;;;;;;4.57;1.20;;;;;;;;;;5093307;28;20016;-74
2022/06/30 06:02:19;;;;;;;5.75;1.20;;;;;;;;;;5093367;28;20432;-73
2022/06/30 06:04:44;;;;;;;6.80;1.13;;;;;;;;;;5093337;28;20081;-76
2022/06/30 06:07:10;;;;;;;3.95;1.30;;;;;;;;;;5092968;28;20043;-74
2022/06/30 06:09:35;;;;;;;6.32;1.30;;;;;;;;;;5092896;28;20028;-74
2022/06/30 06:12:00;;;;;;;4.68;1.20;;;;;;;;;;5093441;28;20464;-75
2022/06/30 06:14:26;;;;;;;4.25;1.23;;;;;;;;;;5093315;28;20140;-75
2022/06/30 06:16:51;;;;;;;4.35;1.20;;;;;;;;;;5093678;28;20055;-75
2022/06/30 06:19:17;;;;;;;5.68;1.50;;;;;;;;;;5092984;28;20027;-74
2022/06/30 06:21:42;;;;;;;4.85;1.13;;;;;;;;;;5092917;28;20012;-77
2022/06/30 06:24:07;;;;;;;4.05;1.00;;;;;;;;;;5092994;28;20024;-75
2022/06/30 06:26:33;;;;;;;3.38;1.00;;;;;;;;;;5093177;28;20024;-76
2022/06/30 06:29:08;;;;;;;4.25;0.90;;;;;;;;;;5092502;28;20028;-75
2022/06/30 06:31:37;;;;;;;3.28;1.00;;;;;;;;;;5092901;28;20031;-75
2022/06/30 06:34:04;;;;;;;3.10;1.02;;;;;;;;;;5092841;28;20116;-76
2022/06/30 06:36:30;;;;;;;4.90;1.35;;;;;;;;;;5092585;28;20562;-75
2022/06/30 06:38:55;;;;;;;3.05;0.85;;;;;;;;;;5092763;28;20098;-75
2022/06/30 06:41:21;;;;;;;5.00;1.00;;;;;;;;;;5092896;28;20472;-76
2022/06/30 06:43:50;;;;;;;4.05;1.10;;;;;;;;;;5092411;28;20074;-77
2022/06/30 06:46:17;;;;;;;6.13;1.20;;;;;;;;;;5092441;28;20423;-73
2022/06/30 06:48:42;;;;;;;5.15;1.00;;;;;;;;;;5089942;28;20047;-76
2022/06/30 06:51:08;;;;;;;4.45;1.30;;;;;;;;;;5071917;28;20029;-75
2022/06/30 06:53:35;;;;;;;4.43;0.88;;;;;;;;;;5072364;28;20044;-74
2022/06/30 06:56:02;;;;;;;5.55;1.20;;;;;;;;;;5072752;28;20068;-74
2022/06/30 06:58:27;;;;;;;4.43;0.98;;;;;;;;;;5071993;28;20434;-76
2022/06/30 07:00:55;;;;;;;3.83;1.00;;;;;;;;;;5071815;28;20031;-77
2022/06/30 07:03:21;;;;;;;2.35;0.93;;;;;;;;;;5071900;28;20123;-71
2022/06/30 07:05:47;;;;;;;5.35;0.93;;;;;;;;;;5071488;28;20103;-71
2022/06/30 07:08:12;;;;;;;4.70;1.17;;;;;;;;;;5071972;28;20409;-74
2022/06/30 07:10:38;;;;;;;3.05;1.00;;;;;;;;;;5071639;28;20357;-71
2022/06/30 07:13:04;;;;;;;4.22;1.20;;;;;;;;;;5072036;28;20033;-71
2022/06/30 07:15:29;;;;;;;7.80;1.15;;;;;;;;;;5071675;28;20032;-71
2022/06/30 07:17:55;;;;;;;5.05;0.98;;;;;;;;;;5071976;28;20453;-71
2022/06/30 07:20:21;;;;;;;3.75;1.00;;;;;;;;;;5071365;28;20036;-72
2022/06/30 07:22:47;;;;;;;4.97;1.13;;;;;;;;;;5071045;28;20048;-71
2022/06/30 07:25:12;;;;;;;4.47;1.15;;;;;;;;;;5071502;28;20113;-74
2022/06/30 07:27:38;;;;;;;4.63;1.10;;;;;;;;;;5071731;28;20107;-76
2022/06/30 07:30:04;;;;;;;5.63;0.90;;;;;;;;;;5071258;28;20446;-74
2022/06/30 07:32:29;;;;;;;5.55;1.20;;;;;;;;;;5071802;28;20020;-75
2022/06/30 07:34:55;;;;;;;4.85;1.20;;;;;;;;;;5071526;28;20028;-75
2022/06/30 07:37:20;;;;;;;3.42;0.90;;;;;;;;;;5071190;28;20036;-74
2022/06/30 07:39:45;;;;;;;5.90;0.90;;;;;;;;;;5070900;28;20032;-75
2022/06/30 07:42:11;;;;;;;3.17;1.00;;;;;;;;;;5071594;28;20028;-75
2022/06/30 07:44:36;;;;;;;4.45;0.90;;;;;;;;;;5070978;28;20021;-74
2022/06/30 07:47:02;;;;;;;4.63;1.02;;;;;;;;;;5071359;28;20024;-75
2022/06/30 07:49:27;;;;;;;3.55;1.25;;;;;;;;;;5070620;28;20044;-76
2022/06/30 07:51:53;;;;;;;3.22;0.90;;;;;;;;;;5071084;28;20033;-74
2022/06/30 07:54:19;;;;;;;3.40;1.05;;;;;;;;;;5071045;28;20128;-76
2022/06/30 07:56:45;;;;;;;3.45;0.95;;;;;;;;;;5070387;28;20090;-75
2022/06/30 07:59:11;;;;;;;3.25;0.95;;;;;;;;;;5070561;28;20036;-76
2022/06/30 08:01:36;;;;;;;3.72;0.98;;;;;;;;;;5070806;28;20028;-76
2022/06/30 08:04:02;;;;;;;3.78;0.80;;;;;;;;;;5070825;28;20107;-77
2022/06/30 08:06:28;;;;;;;3.97;1.00;;;;;;;;;;5070449;28;20024;-77
2022/06/30 08:08:53;;;;;;;7.63;1.15;;;;;;;;;;5070904;28;20024;-75
2022/06/30 08:11:18;;;;;;;4.63;1.27;;;;;;;;;;5070502;28;20105;-77
2022/06/30 08:13:44;;;;;;;2.80;0.93;;;;;;;;;;5070885;28;20028;-75
2022/06/30 08:16:11;;;;;;;5.10;1.20;;;;;;;;;;5070519;28;20032;-72
2022/06/30 08:18:37;;;;;;;5.03;1.13;;;;;;;;;;5070870;28;20028;-71
2022/06/30 08:21:03;;;;;;;4.75;1.27;;;;;;;;;;5069848;28;20028;-71
2022/06/30 08:23:29;;;;;;;6.85;1.10;;;;;;;;;;5070557;28;20033;-71
2022/06/30 08:25:54;;;;;;;8.25;1.27;;;;;;;;;;5070306;28;20116;-71
2022/06/30 08:28:20;;;;;;;5.75;0.98;;;;;;;;;;5070430;28;20035;-70
2022/06/30 08:30:48;;;;;;;3.22;1.02;;;;;;;;;;5070466;28;20025;-70
2022/06/30 08:33:14;;;;;;;4.78;1.10;;;;;;;;;;5070564;28;20032;-72
2022/06/30 08:35:39;;;;;;;4.45;0.98;;;;;;;;;;5069844;28;20537;-75
2022/06/30 08:38:05;;;;;;;3.08;0.95;;;;;;;;;;5070472;28;20033;-71
2022/06/30 08:43:17;;;;;;;3.25;1.00;;;;;;;;;;5070130;28;20178;-73
2022/06/30 08:45:44;;;;;;;2.55;0.95;;;;;;;;;;5069967;28;20055;-73
2022/06/30 08:48:09;;;;;;;6.45;1.00;;;;;;;;;;5070218;28;20476;-75
2022/06/30 08:50:35;;;;;;;6.15;1.00;;;;;;;;;;5083422;28;20055;-75
2022/06/30 08:53:03;;;;;;;7.75;1.52;;;;;;;;;;5090076;28;20666;-76
2022/06/30 08:55:32;;;;;;;5.00;1.15;;;;;;;;;;5089861;28;20032;-75
2022/06/30 08:58:02;;;;;;;4.85;1.10;;;;;;;;;;5088766;28;20034;-74
2022/06/30 09:00:27;;;;;;;3.92;1.00;;;;;;;;;;5089660;28;20028;-74
2022/06/30 09:02:53;;;;;;;5.32;1.08;;;;;;;;;;5089947;28;20040;-73
2022/06/30 09:05:19;;;;;;;4.40;0.80;;;;;;;;;;5089928;28;20637;-72
2022/06/30 09:07:44;;;;;;;3.25;0.77;;;;;;;;;;5087896;28;20020;-72
2022/06/30 09:10:10;;;;;;;6.03;1.00;;;;;;;;;;5089489;28;20447;-73
2022/06/30 09:12:35;;;;;;;7.72;1.20;;;;;;;;;;5090061;28;20031;-75
2022/06/30 09:15:01;;;;;;;8.73;1.17;;;;;;;;;;5089754;28;20027;-75
2022/06/30 09:17:29;;;;;;;5.47;1.35;;;;;;;;;;5089726;28;20541;-75
2022/06/30 09:20:01;;;;;;;4.68;1.00;;;;;;;;;;5089537;28;20480;-75
2022/06/30 09:22:39;;;;;;;5.45;1.20;;;;;;;;;;5089378;28;20068;-73
2022/06/30 09:25:10;;;;;;;6.75;1.20;;;;;;;;;;5089823;28;20062;-73
2022/06/30 09:27:41;;;;;;;5.88;0.82;;;;;;;;;;5090024;28;20108;-71
2022/06/30 09:30:09;;;;;;;4.18;0.98;;;;;;;;;;5089554;28;20055;-77
2022/06/30 09:33:02;;;;;;;5.03;1.00;;;;;;;;;;5088534;28;20023;-76
2022/06/30 09:35:29;;;;;;;4.75;1.00;;;;;;;;;;5089381;28;20024;-74
2022/06/30 09:38:05;;;;;;;4.28;1.00;;;;;;;;;;5089432;28;20084;-74
2022/06/30 09:41:00;;;;;;;4.63;0.90;;;;;;;;;;5089436;28;20047;-75
2022/06/30 09:43:37;;;;;;;5.50;1.20;;;;;;;;;;5089626;28;20028;-73
2022/06/30 09:46:04;;;;;;;5.70;1.02;;;;;;;;;;5089658;28;20024;-76
2022/06/30 09:48:32;;;;;;;3.50;1.10;;;;;;;;;;5089551;28;20387;-74
2022/06/30 09:50:58;;;;;;;4.70;0.95;;;;;;;;;;5087261;28;20142;-74
2022/06/30 09:53:24;;;;;;;4.00;1.08;;;;;;;;;;5089496;28;20048;-74
2022/06/30 09:55:49;;;;;;;5.03;1.10;;;;;;;;;;5089092;28;20122;-74
2022/06/30 09:58:31;;;;;;;4.60;0.90;;;;;;;;;;5088145;28;20027;-75
2022/06/30 10:00:58;;;;;;;4.35;1.02;;;;;;;;;;5089107;28;20024;-71
2022/06/30 10:03:24;;;;;;;2.83;0.93;;;;;;;;;;5089507;28;20038;-74
2022/06/30 10:06:05;;;;;;;4.10;0.90;;;;;;;;;;5089152;28;20020;-73
2022/06/30 10:08:30;;;;;;;4.50;0.90;;;;;;;;;;5089620;28;20039;-72
2022/06/30 10:10:55;;;;;;;4.78;0.90;;;;;;;;;;5089077;28;20431;-75
2022/06/30 10:13:21;;;;;;;8.57;1.02;;;;;;;;;;5089243;28;20060;-74
2022/06/30 10:15:54;;;;;;;5.18;0.93;;;;;;;;;;5089198;28;20508;-75
2022/06/30 10:18:24;;;;;;;4.68;1.00;;;;;;;;;;5089367;28;20020;-76
2022/06/30 10:20:50;;;;;;;;;;;;;;;;;;5092336;28;20024;-75
2022/06/30 10:23:19;;;;;;;3.75;0.90;;;;;;;;;;5091884;28;19965;-74
2022/06/30 10:25:47;;;;;;;4.47;0.90;;;;;;;;;;5092913;28;20016;-74
2022/06/30 10:28:15;;;;;;;2.70;0.98;;;;;;;;;;5093099;28;20028;-74
2022/06/30 10:31:00;;;;;;;3.67;0.93;;;;;;;;;;5092638;28;20158;-75
2022/06/30 10:33:37;;;;;;;4.88;1.20;;;;;;;;;;5092808;28;20400;-76
2022/06/30 10:36:14;;;;;;;4.65;1.20;;;;;;;;;;5092356;28;20035;-74
2022/06/30 10:38:50;;;;;;;4.30;1.20;;;;;;;;;;5093017;28;20092;-75
2022/06/30 10:41:17;;;;;;;3.22;0.90;;;;;;;;;;5092439;28;20024;-77
2022/06/30 10:44:04;;;;;;;3.40;0.77;;;;;;;;;;5092754;28;20024;-75
2022/06/30 10:46:56;;;;;;;2.58;1.10;;;;;;;;;;5091491;28;20032;-72
2022/06/30 10:49:25;;;;;;;5.82;0.90;;;;;;;;;;5087044;28;20051;-72
2022/06/30 10:51:55;;;;;;;3.33;1.10;;;;;;;;;;5071667;28;20028;-74
2022/06/30 10:54:32;;;;;;;3.33;0.90;;;;;;;;;;5072364;28;20032;-77
2022/06/30 10:56:59;;;;;;;4.50;1.02;;;;;;;;;;5072200;28;20025;-73
2022/06/30 10:59:32;;;;;;;2.97;1.00;;;;;;;;;;5072310;28;20016;-71
2022/06/30 11:02:15;;;;;;;3.72;1.20;;;;;;;;;;5071896;28;20038;-74
2022/06/30 11:04:49;;;;;;;3.25;0.95;;;;;;;;;;5072209;28;20033;-75
2022/06/30 11:07:23;;;;;;;3.72;1.23;;;;;;;;;;5072138;28;20104;-72
2022/06/30 11:09:52;;;;;;;4.25;1.23;;;;;;;;;;5072671;28;20488;-71
2022/06/30 11:12:23;;;;;;;4.35;1.20;;;;;;;;;;5072327;28;20035;-77
2022/06/30 11:14:50;;;;;;;;;;;;;;;;;;5073551;28;20028;-74
2022/06/30 11:17:16;;;;;;;4.72;1.10;;;;;;;;;;5074730;28;19920;-71
2022/06/30 11:19:42;;;;;;;4.70;1.13;;;;;;;;;;5077740;28;20032;-71
2022/06/30 11:22:08;;;;;;;2.47;1.02;;;;;;;;;;5071293;28;20040;-71
2022/06/30 11:24:39;;;;;;;4.30;1.02;;;;;;;;;;5072029;28;20032;-71
2022/06/30 11:27:22;;;;;;;7.30;1.65;;;;;;;;;;5053917;28;20032;-71
2022/06/30 11:30:01;;;;;;;2.97;1.10;;;;;;;;;;5071690;28;20056;-71
2022/06/30 11:32:27;;;;;;;3.20;1.13;;;;;;;;;;5070661;28;20033;-71
2022/06/30 11:34:53;;;;;;;3.28;0.98;;;;;;;;;;5071901;28;20511;-70
2022/06/30 11:37:36;;;;;;;3.67;1.05;;;;;;;;;;5071632;28;20025;-72
2022/06/30 11:40:08;;;;;;;5.82;1.35;;;;;;;;;;5076107;28;20029;-72
2022/06/30 11:42:34;;;;;;;2.78;1.08;;;;;;;;;;5076391;28;20039;-72
2022/06/30 11:44:59;;;;;;;2.60;1.00;;;;;;;;;;5077026;28;20032;-71
2022/06/30 11:47:28;;;;;;;3.33;1.30;;;;;;;;;;5076310;28;20078;-71
2022/06/30 11:49:55;;;;;;;2.63;1.13;;;;;;;;;;5076938;28;20045;-71
2022/06/30 11:52:31;;;;;;;2.63;1.10;;;;;;;;;;5076128;28;20411;-70
2022/06/30 11:55:05;;;;;;;3.10;0.95;;;;;;;;;;5076872;28;20024;-70
2022/06/30 11:57:31;;;;;;;4.35;1.20;;;;;;;;;;5076469;28;20058;-73
2022/06/30 12:00:02;;;;;;;3.65;1.00;;;;;;;;;;5076445;28;20030;-71
2022/06/30 12:02:28;;;;;;;;;;;;;;;;;;5074667;28;20039;-71
2022/06/30 12:04:59;;;;;;;4.13;1.10;;;;;;;;;;5071204;28;19912;-74
2022/06/30 12:07:26;;;;;;;1.60;1.08;;;;;;;;;;5070185;28;20016;-73
2022/06/30 12:09:54;;;;;;;2.88;1.10;;;;;;;;;;5070969;28;20056;-73
2022/06/30 12:12:27;;;;;;;2.25;1.00;;;;;;;;;;5070518;28;20124;-72
2022/06/30 12:14:55;;;;;;;3.45;1.05;;;;;;;;;;5070777;28;20075;-75
2022/06/30 12:17:21;;;;;;;2.88;1.02;;;;;;;;;;5070628;28;20581;-71
2022/06/30 12:19:47;;;;;;;5.28;1.05;;;;;;;;;;5070685;28;20107;-74
2022/06/30 12:22:13;;;;;;;3.53;1.30;;;;;;;;;;5070064;28;20028;-74
2022/06/30 12:24:40;;;;;;;3.40;0.90;;;;;;;;;;5070612;28;20046;-71
2022/06/30 12:27:06;;;;;;;2.83;0.82;;;;;;;;;;5070181;28;20476;-73
2022/06/30 12:29:32;;;;;;;3.30;1.20;;;;;;;;;;5052745;28;20057;-73
2022/06/30 12:32:08;;;;;;;4.82;1.08;;;;;;;;;;5070473;28;20021;-75
2022/06/30 12:34:50;;;;;;;2.75;0.95;;;;;;;;;;5052760;28;20466;-75
2022/06/30 12:37:15;;;;;;;2.22;1.13;;;;;;;;;;5070059;28;20085;-75
2022/06/30 12:39:45;;;;;;;2.85;1.00;;;;;;;;;;5052636;28;20021;-75
2022/06/30 12:42:11;;;;;;;1.63;0.90;;;;;;;;;;5070097;28;20025;-75
2022/06/30 12:44:38;;;;;;;2.40;1.00;;;;;;;;;;5070266;28;20107;-72
2022/06/30 12:47:06;;;;;;;3.50;1.00;;;;;;;;;;5070225;28;20051;-74
2022/06/30 12:49:32;;;;;;;2.70;1.20;;;;;;;;;;5069974;28;20042;-76
2022/06/30 12:51:57;;;;;;;4.22;1.05;;;;;;;;;;5069915;28;20063;-74
2022/06/30 12:54:25;;;;;;;3.05;1.00;;;;;;;;;;5052146;28;20048;-73
2022/06/30 12:56:51;;;;;;;2.30;0.95;;;;;;;;;;5070399;28;20044;-73
2022/06/30 12:59:19;;;;;;;2.10;0.90;;;;;;;;;;5070069;28;20041;-73
2022/06/30 13:01:54;;;;;;;3.42;0.98;;;;;;;;;;5069692;28;20025;-75
2022/06/30 13:04:28;;;;;;;2.17;0.77;;;;;;;;;;5051929;28;20070;-75
2022/06/30 13:06:55;;;;;;;2.35;0.80;;;;;;;;;;5069812;28;20021;-75
2022/06/30 13:09:23;;;;;;;4.60;0.82;;;;;;;;;;5070016;28;20025;-72
2022/06/30 13:12:00;;;;;;;3.50;0.93;;;;;;;;;;5069908;28;20036;-72
2022/06/30 13:14:28;;;;;;;1.02;0.75;;;;;;;;;;5069650;28;20472;-73
2022/06/30 13:16:54;;;;;;;5.70;1.38;;;;;;;;;;5069960;28;20042;-75
2022/06/30 13:19:20;;;;;;;3.97;0.95;;;;;;;;;;5069615;28;20481;-74
2022/06/30 13:21:49;;;;;;;2.50;0.90;;;;;;;;;;5069158;28;20040;-71
2022/06/30 13:24:16;;;;;;;2.05;0.90;;;;;;;;;;5069357;28;20035;-75
2022/06/30 13:26:42;;;;;;;1.90;0.90;;;;;;;;;;5069672;28;20024;-73
2022/06/30 13:29:08;;;;;;;2.40;0.93;;;;;;;;;;5069498;28;20487;-77
2022/06/30 13:31:35;;;;;;;3.00;0.70;;;;;;;;;;5069608;28;20116;-74
2022/06/30 13:34:02;;;;;;;0.80;0.75;;;;;;;;;;5069541;28;20369;-74
2022/06/30 13:36:30;;;;;;;2.28;0.73;;;;;;;;;;5069398;28;20032;-71
2022/06/30 13:38:57;;;;;;;1.67;0.80;;;;;;;;;;5069440;28;20025;-75
2022/06/30 13:41:22;;;;;;;3.15;0.93;;;;;;;;;;5069108;28;20119;-73
2022/06/30 13:43:48;;;;;;;2.13;0.80;;;;;;;;;;5069498;28;20622;-74
2022/06/30 13:46:14;;;;;;;3.08;0.85;;;;;;;;;;5069524;28;20020;-75
2022/06/30 13:48:39;;;;;;;1.92;0.85;;;;;;;;;;5069352;28;20088;-76
2022/06/30 13:51:04;;;;;;;2.78;0.90;;;;;;;;;;5068899;28;20045;-74
2022/06/30 13:53:30;;;;;;;2.95;0.85;;;;;;;;;;5069168;28;20029;-75
2022/06/30 13:55:55;;;;;;;2.25;0.93;;;;;;;;;;5072772;28;20400;-72
2022/06/30 13:58:22;;;;;;;1.42;0.90;;;;;;;;;;5055150;28;20025;-71
2022/06/30 14:00:48;;;;;;;2.58;0.80;;;;;;;;;;5073233;28;20055;-72
2022/06/30 14:03:13;;;;;;;3.47;1.00;;;;;;;;;;5072640;28;20029;-76
2022/06/30 14:05:39;;;;;;;2.53;0.80;;;;;;;;;;5072932;28;20021;-70
2022/06/30 14:08:05;;;;;;;4.95;1.00;;;;;;;;;;5072863;28;20016;-76
2022/06/30 14:10:30;;;;;;;3.28;0.90;;;;;;;;;;5073061;28;20442;-73
2022/06/30 14:12:56;;;;;;;6.60;0.95;;;;;;;;;;5073035;28;20046;-74
2022/06/30 14:15:23;;;;;;;5.15;0.90;;;;;;;;;;5072797;28;20562;-73
2022/06/30 14:17:48;;;;;;;2.75;1.00;;;;;;;;;;5073093;28;20087;-75
2022/06/30 14:20:14;;;;;;;2.53;1.08;;;;;;;;;;5072646;28;20642;-74
2022/06/30 14:22:40;;;;;;;4.38;0.90;;;;;;;;;;5072178;28;20031;-74
2022/06/30 14:25:08;;;;;;;4.85;1.15;;;;;;;;;;5072464;28;20039;-72
2022/06/30 14:27:34;;;;;;;5.43;1.00;;;;;;;;;;5072783;28;20052;-72
2022/06/30 14:30:07;;;;;;;3.45;1.00;;;;;;;;;;5072733;28;20520;-71
2022/06/30 14:32:34;;;;;;;2.90;1.27;;;;;;;;;;5072496;28;20048;-70
2022/06/30 14:35:01;;;;;;;2.45;0.80;;;;;;;;;;5072363;28;20516;-72
2022/06/30 14:37:27;;;;;;;4.85;1.10;;;;;;;;;;5072214;28;20039;-73
2022/06/30 14:39:53;;;;;;;4.35;0.90;;;;;;;;;;5072249;28;20028;-72
2022/06/30 14:45:03;;;;;;;2.83;1.00;;;;;;;;;;5072466;28;20094;-75
2022/06/30 14:47:29;;;;;;;3.30;1.00;;;;;;;;;;5072529;28;20021;-73
2022/06/30 14:49:55;;;;;;;4.13;1.00;;;;;;;;;;5072057;28;20053;-74
2022/06/30 14:52:20;;;;;;;2.13;0.90;;;;;;;;;;5071835;28;20758;-72
2022/06/30 14:54:46;;;;;;;2.85;0.90;;;;;;;;;;5072026;28;20103;-72
2022/06/30 14:57:11;;;;;;;4.65;1.08;;;;;;;;;;5072115;28;20078;-73